sensor_id;sensor_type;location;lat;lon;timestamp;temperature;humidity
65559;DHT22;52203;51.998;5.140;2023-07-31T00:01:19;11.10;118.99
65559;DHT22;52203;51.998;5.140;2023-07-31T00:03:45;11.49;118.99
65559;DHT22;52203;51.998;5.140;2023-07-31T00:06:11;11.60;118.99
65559;DHT22;52203;51.998;5.140;2023-07-31T00:08:36;11.69;118.99
65559;DHT22;52203;51.998;5.140;2023-07-31T00:11:02;12.18;118.99
65559;DHT22;52203;51.998;5.140;2023-07-31T00:13:27;12.16;118.99
65559;DHT22;52203;51.998;5.140;2023-07-31T00:15:53;12.20;118.99
65559;DHT22;52203;51.998;5.140;2023-07-31T00:18:18;11.90;118.99
65559;DHT22;52203;51.998;5.140;2023-07-31T00:20:44;12.21;118.99
65559;DHT22;52203;51.998;5.140;2023-07-31T00:23:09;12.22;118.99
65559;DHT22;52203;51.998;5.140;2023-07-31T00:25:34;12.22;118.99
65559;DHT22;52203;51.998;5.140;2023-07-31T00:28:00;12.25;118.99
65559;DHT22;52203;51.998;5.140;2023-07-31T00:30:25;12.25;118.99
65559;DHT22;52203;51.998;5.140;2023-07-31T00:32:52;12.25;118.99
65559;DHT22;52203;51.998;5.140;2023-07-31T00:35:17;12.26;118.99
65559;DHT22;52203;51.998;5.140;2023-07-31T00:37:43;12.27;118.99
65559;DHT22;52203;51.998;5.140;2023-07-31T00:40:09;12.26;118.99
65559;DHT22;52203;51.998;5.140;2023-07-31T00:42:34;12.22;118.99
65559;DHT22;52203;51.998;5.140;2023-07-31T00:45:00;12.22;118.99
65559;DHT22;52203;51.998;5.140;2023-07-31T00:47:25;12.21;118.99
65559;DHT22;52203;51.998;5.140;2023-07-31T00:49:51;12.21;118.99
65559;DHT22;52203;51.998;5.140;2023-07-31T00:52:18;12.21;118.99
65559;DHT22;52203;51.998;5.140;2023-07-31T00:54:43;12.21;118.99
65559;DHT22;52203;51.998;5.140;2023-07-31T00:57:09;12.21;118.99
65559;DHT22;52203;51.998;5.140;2023-07-31T00:59:35;12.19;118.99
65559;DHT22;52203;51.998;5.140;2023-07-31T01:02:02;12.16;118.99
65559;DHT22;52203;51.998;5.140;2023-07-31T01:04:28;12.18;118.99
65559;DHT22;52203;51.998;5.140;2023-07-31T01:12:38;11.78;118.99
65559;DHT22;52203;51.998;5.140;2023-07-31T01:15:05;11.77;118.99
65559;DHT22;52203;51.998;5.140;2023-07-31T01:17:31;11.74;118.99
65559;DHT22;52203;51.998;5.140;2023-07-31T01:20:03;11.74;118.99
65559;DHT22;52203;51.998;5.140;2023-07-31T01:22:40;11.72;118.99
65559;DHT22;52203;51.998;5.140;2023-07-31T01:28:20;11.70;118.99
65559;DHT22;52203;51.998;5.140;2023-07-31T01:30:48;11.68;118.99
65559;DHT22;52203;51.998;5.140;2023-07-31T01:33:16;11.63;118.99
65559;DHT22;52203;51.998;5.140;2023-07-31T01:35:44;11.64;118.99
65559;DHT22;52203;51.998;5.140;2023-07-31T01:38:09;11.64;118.99
65559;DHT22;52203;51.998;5.140;2023-07-31T01:40:35;11.62;118.99
65559;DHT22;52203;51.998;5.140;2023-07-31T01:43:00;11.61;118.99
65559;DHT22;52203;51.998;5.140;2023-07-31T01:45:26;11.61;118.99
65559;DHT22;52203;51.998;5.140;2023-07-31T01:47:52;11.60;118.99
65559;DHT22;52203;51.998;5.140;2023-07-31T01:50:17;11.59;118.99
65559;DHT22;52203;51.998;5.140;2023-07-31T01:52:43;11.55;118.99
65559;DHT22;52203;51.998;5.140;2023-07-31T01:55:08;11.52;118.99
65559;DHT22;52203;51.998;5.140;2023-07-31T01:57:36;11.52;118.99
65559;DHT22;52203;51.998;5.140;2023-07-31T02:00:01;11.51;118.99
65559;DHT22;52203;51.998;5.140;2023-07-31T02:02:27;11.51;118.99
65559;DHT22;52203;51.998;5.140;2023-07-31T02:04:52;11.48;118.99
65559;DHT22;52203;51.998;5.140;2023-07-31T02:07:17;11.49;118.99
65559;DHT22;52203;51.998;5.140;2023-07-31T02:09:43;11.49;118.99
65559;DHT22;52203;51.998;5.140;2023-07-31T02:12:08;11.49;118.99
65559;DHT22;52203;51.998;5.140;2023-07-31T02:14:34;11.49;118.99
65559;DHT22;52203;51.998;5.140;2023-07-31T02:17:00;11.51;118.99
65559;DHT22;52203;51.998;5.140;2023-07-31T02:19:25;11.48;118.99
65559;DHT22;52203;51.998;5.140;2023-07-31T02:21:51;11.47;118.99
65559;DHT22;52203;51.998;5.140;2023-07-31T02:24:16;11.46;118.99
65559;DHT22;52203;51.998;5.140;2023-07-31T02:26:42;11.47;118.99
65559;DHT22;52203;51.998;5.140;2023-07-31T02:29:08;11.46;118.99
65559;DHT22;52203;51.998;5.140;2023-07-31T02:31:34;11.44;118.99
65559;DHT22;52203;51.998;5.140;2023-07-31T02:33:59;11.41;118.99
65559;DHT22;52203;51.998;5.140;2023-07-31T02:36:25;11.38;118.99
65559;DHT22;52203;51.998;5.140;2023-07-31T02:38:50;11.37;118.99
65559;DHT22;52203;51.998;5.140;2023-07-31T02:41:15;11.37;118.99
65559;DHT22;52203;51.998;5.140;2023-07-31T02:43:41;11.32;118.99
65559;DHT22;52203;51.998;5.140;2023-07-31T02:46:07;11.22;118.99
65559;DHT22;52203;51.998;5.140;2023-07-31T02:48:32;11.18;118.99
65559;DHT22;52203;51.998;5.140;2023-07-31T02:50:58;11.17;118.99
65559;DHT22;52203;51.998;5.140;2023-07-31T02:53:23;11.15;118.99
65559;DHT22;52203;51.998;5.140;2023-07-31T02:55:49;11.13;118.99
65559;DHT22;52203;51.998;5.140;2023-07-31T02:58:14;11.08;118.99
65559;DHT22;52203;51.998;5.140;2023-07-31T03:00:43;11.07;118.99
65559;DHT22;52203;51.998;5.140;2023-07-31T03:03:09;11.03;118.99
65559;DHT22;52203;51.998;5.140;2023-07-31T03:05:34;11.03;118.99
65559;DHT22;52203;51.998;5.140;2023-07-31T03:08:00;10.96;118.99
65559;DHT22;52203;51.998;5.140;2023-07-31T03:10:25;10.96;118.99
65559;DHT22;52203;51.998;5.140;2023-07-31T03:12:50;10.93;118.99
65559;DHT22;52203;51.998;5.140;2023-07-31T03:15:16;10.89;118.99
65559;DHT22;52203;51.998;5.140;2023-07-31T03:17:42;10.85;118.99
65559;DHT22;52203;51.998;5.140;2023-07-31T03:20:08;10.87;118.99
65559;DHT22;52203;51.998;5.140;2023-07-31T03:22:34;10.87;118.99
65559;DHT22;52203;51.998;5.140;2023-07-31T03:25:01;10.87;118.99
65559;DHT22;52203;51.998;5.140;2023-07-31T03:27:26;10.85;118.99
65559;DHT22;52203;51.998;5.140;2023-07-31T03:29:52;10.85;118.99
65559;DHT22;52203;51.998;5.140;2023-07-31T03:32:17;10.84;118.99
65559;DHT22;52203;51.998;5.140;2023-07-31T03:34:43;10.84;118.99
65559;DHT22;52203;51.998;5.140;2023-07-31T03:37:08;10.89;118.99
65559;DHT22;52203;51.998;5.140;2023-07-31T03:39:35;10.88;118.99
65559;DHT22;52203;51.998;5.140;2023-07-31T03:42:00;10.87;118.99
65559;DHT22;52203;51.998;5.140;2023-07-31T03:44:26;10.89;118.99
65559;DHT22;52203;51.998;5.140;2023-07-31T03:46:51;10.86;118.99
65559;DHT22;52203;51.998;5.140;2023-07-31T03:49:17;10.85;118.99
65559;DHT22;52203;51.998;5.140;2023-07-31T03:51:42;10.85;118.99
65559;DHT22;52203;51.998;5.140;2023-07-31T03:54:08;10.85;118.99
65559;DHT22;52203;51.998;5.140;2023-07-31T03:56:33;10.85;118.99
65559;DHT22;52203;51.998;5.140;2023-07-31T03:58:59;10.83;118.99
65559;DHT22;52203;51.998;5.140;2023-07-31T04:01:25;10.85;118.99
65559;DHT22;52203;51.998;5.140;2023-07-31T04:03:51;10.87;118.99
65559;DHT22;52203;51.998;5.140;2023-07-31T04:06:16;10.87;118.99
65559;DHT22;52203;51.998;5.140;2023-07-31T04:08:44;10.88;118.99
65559;DHT22;52203;51.998;5.140;2023-07-31T04:11:10;10.88;118.99
65559;DHT22;52203;51.998;5.140;2023-07-31T04:13:37;10.89;118.99
65559;DHT22;52203;51.998;5.140;2023-07-31T04:16:02;10.93;118.99
65559;DHT22;52203;51.998;5.140;2023-07-31T04:18:28;10.92;118.99
65559;DHT22;52203;51.998;5.140;2023-07-31T04:20:56;10.90;118.99
65559;DHT22;52203;51.998;5.140;2023-07-31T04:23:21;10.88;118.99
65559;DHT22;52203;51.998;5.140;2023-07-31T04:25:47;10.88;118.99
65559;DHT22;52203;51.998;5.140;2023-07-31T04:28:12;10.86;118.99
65559;DHT22;52203;51.998;5.140;2023-07-31T04:30:38;10.85;118.99
65559;DHT22;52203;51.998;5.140;2023-07-31T04:33:04;10.85;118.99
65559;DHT22;52203;51.998;5.140;2023-07-31T04:35:29;10.85;118.99
65559;DHT22;52203;51.998;5.140;2023-07-31T04:37:55;10.87;118.99
65559;DHT22;52203;51.998;5.140;2023-07-31T04:40:20;10.88;118.99
65559;DHT22;52203;51.998;5.140;2023-07-31T04:42:46;10.86;118.99
65559;DHT22;52203;51.998;5.140;2023-07-31T04:45:12;10.88;118.99
65559;DHT22;52203;51.998;5.140;2023-07-31T04:47:37;10.90;118.99
65559;DHT22;52203;51.998;5.140;2023-07-31T04:50:03;10.89;118.99
65559;DHT22;52203;51.998;5.140;2023-07-31T04:52:29;10.90;118.99
65559;DHT22;52203;51.998;5.140;2023-07-31T04:54:54;10.90;118.99
65559;DHT22;52203;51.998;5.140;2023-07-31T04:57:20;10.90;118.99
65559;DHT22;52203;51.998;5.140;2023-07-31T04:59:45;10.89;118.99
65559;DHT22;52203;51.998;5.140;2023-07-31T05:02:12;10.86;118.99
65559;DHT22;52203;51.998;5.140;2023-07-31T05:04:38;10.86;118.99
65559;DHT22;52203;51.998;5.140;2023-07-31T05:07:04;10.83;118.99
65559;DHT22;52203;51.998;5.140;2023-07-31T05:09:30;10.84;118.99
65559;DHT22;52203;51.998;5.140;2023-07-31T05:11:55;10.83;118.99
65559;DHT22;52203;51.998;5.140;2023-07-31T05:14:21;10.83;118.99
65559;DHT22;52203;51.998;5.140;2023-07-31T05:16:46;10.83;118.99
65559;DHT22;52203;51.998;5.140;2023-07-31T05:19:12;10.94;118.99
65559;DHT22;52203;51.998;5.140;2023-07-31T05:21:37;10.92;118.99
65559;DHT22;52203;51.998;5.140;2023-07-31T05:24:03;10.94;118.99
65559;DHT22;52203;51.998;5.140;2023-07-31T05:26:29;10.95;118.99
65559;DHT22;52203;51.998;5.140;2023-07-31T05:28:54;10.95;118.99
65559;DHT22;52203;51.998;5.140;2023-07-31T05:31:20;10.97;118.99
65559;DHT22;52203;51.998;5.140;2023-07-31T05:33:47;10.97;118.99
65559;DHT22;52203;51.998;5.140;2023-07-31T05:36:15;10.97;118.99
65559;DHT22;52203;51.998;5.140;2023-07-31T05:38:40;10.97;118.99
65559;DHT22;52203;51.998;5.140;2023-07-31T05:41:06;10.99;118.99
65559;DHT22;52203;51.998;5.140;2023-07-31T05:43:31;10.97;118.99
65559;DHT22;52203;51.998;5.140;2023-07-31T05:45:57;10.97;118.99
65559;DHT22;52203;51.998;5.140;2023-07-31T05:48:22;10.97;118.99
65559;DHT22;52203;51.998;5.140;2023-07-31T05:50:48;10.98;118.99
65559;DHT22;52203;51.998;5.140;2023-07-31T05:53:13;10.95;118.99
65559;DHT22;52203;51.998;5.140;2023-07-31T05:55:39;10.98;118.99
65559;DHT22;52203;51.998;5.140;2023-07-31T05:58:04;10.99;118.99
65559;DHT22;52203;51.998;5.140;2023-07-31T06:00:30;11.00;118.99
65559;DHT22;52203;51.998;5.140;2023-07-31T06:02:56;10.98;118.99
65559;DHT22;52203;51.998;5.140;2023-07-31T06:05:22;10.98;118.99
65559;DHT22;52203;51.998;5.140;2023-07-31T06:07:47;11.00;118.99
65559;DHT22;52203;51.998;5.140;2023-07-31T06:10:13;11.01;118.99
65559;DHT22;52203;51.998;5.140;2023-07-31T06:12:38;11.02;118.99
65559;DHT22;52203;51.998;5.140;2023-07-31T06:15:04;11.02;118.99
65559;DHT22;52203;51.998;5.140;2023-07-31T06:17:30;11.04;118.99
65559;DHT22;52203;51.998;5.140;2023-07-31T06:19:56;11.07;118.99
65559;DHT22;52203;51.998;5.140;2023-07-31T06:22:21;11.07;118.99
65559;DHT22;52203;51.998;5.140;2023-07-31T06:24:47;11.10;118.99
65559;DHT22;52203;51.998;5.140;2023-07-31T06:27:12;11.10;118.99
65559;DHT22;52203;51.998;5.140;2023-07-31T06:29:38;11.10;118.99
65559;DHT22;52203;51.998;5.140;2023-07-31T06:32:03;11.10;118.99
65559;DHT22;52203;51.998;5.140;2023-07-31T06:34:29;11.12;118.99
65559;DHT22;52203;51.998;5.140;2023-07-31T06:36:56;11.14;118.99
65559;DHT22;52203;51.998;5.140;2023-07-31T06:39:21;11.16;118.99
65559;DHT22;52203;51.998;5.140;2023-07-31T06:41:47;11.17;118.99
65559;DHT22;52203;51.998;5.140;2023-07-31T06:44:12;11.22;118.99
65559;DHT22;52203;51.998;5.140;2023-07-31T06:46:38;11.27;118.99
65559;DHT22;52203;51.998;5.140;2023-07-31T06:49:03;11.33;118.99
65559;DHT22;52203;51.998;5.140;2023-07-31T06:51:29;11.36;118.99
65559;DHT22;52203;51.998;5.140;2023-07-31T06:53:57;11.38;118.99
65559;DHT22;52203;51.998;5.140;2023-07-31T06:56:23;11.63;118.99
65559;DHT22;52203;51.998;5.140;2023-07-31T06:58:48;11.41;118.99
65559;DHT22;52203;51.998;5.140;2023-07-31T07:01:14;11.42;118.99
65559;DHT22;52203;51.998;5.140;2023-07-31T07:03:39;11.44;118.99
65559;DHT22;52203;51.998;5.140;2023-07-31T07:06:05;11.48;118.99
65559;DHT22;52203;51.998;5.140;2023-07-31T07:08:30;11.51;118.99
65559;DHT22;52203;51.998;5.140;2023-07-31T07:10:56;11.55;118.99
65559;DHT22;52203;51.998;5.140;2023-07-31T07:13:22;11.48;118.99
65559;DHT22;52203;51.998;5.140;2023-07-31T07:15:48;11.48;118.99
65559;DHT22;52203;51.998;5.140;2023-07-31T07:18:14;11.45;118.99
65559;DHT22;52203;51.998;5.140;2023-07-31T07:20:40;11.46;118.99
65559;DHT22;52203;51.998;5.140;2023-07-31T07:23:05;11.44;118.99
65559;DHT22;52203;51.998;5.140;2023-07-31T07:25:31;11.47;118.99
65559;DHT22;52203;51.998;5.140;2023-07-31T07:27:56;11.52;118.99
65559;DHT22;52203;51.998;5.140;2023-07-31T07:30:22;11.55;118.99
65559;DHT22;52203;51.998;5.140;2023-07-31T07:32:50;11.62;118.99
65559;DHT22;52203;51.998;5.140;2023-07-31T07:35:15;11.78;118.99
65559;DHT22;52203;51.998;5.140;2023-07-31T07:37:41;11.87;118.99
65559;DHT22;52203;51.998;5.140;2023-07-31T07:40:07;11.88;118.99
65559;DHT22;52203;51.998;5.140;2023-07-31T07:42:33;11.78;118.99
65559;DHT22;52203;51.998;5.140;2023-07-31T07:44:58;11.73;118.99
65559;DHT22;52203;51.998;5.140;2023-07-31T07:47:24;11.72;118.99
65559;DHT22;52203;51.998;5.140;2023-07-31T07:49:49;11.68;118.99
65559;DHT22;52203;51.998;5.140;2023-07-31T07:52:15;11.69;118.99
65559;DHT22;52203;51.998;5.140;2023-07-31T07:54:40;11.69;118.99
65559;DHT22;52203;51.998;5.140;2023-07-31T07:57:06;11.73;118.99
65559;DHT22;52203;51.998;5.140;2023-07-31T07:59:31;11.76;118.99
65559;DHT22;52203;51.998;5.140;2023-07-31T08:01:56;11.78;118.99
65559;DHT22;52203;51.998;5.140;2023-07-31T08:04:23;11.74;118.99
65559;DHT22;52203;51.998;5.140;2023-07-31T08:06:48;11.74;118.99
65559;DHT22;52203;51.998;5.140;2023-07-31T08:09:14;11.77;118.99
65559;DHT22;52203;51.998;5.140;2023-07-31T08:11:39;11.77;118.99
65559;DHT22;52203;51.998;5.140;2023-07-31T08:14:05;11.70;118.99
65559;DHT22;52203;51.998;5.140;2023-07-31T08:16:30;11.59;118.99
65559;DHT22;52203;51.998;5.140;2023-07-31T08:18:56;11.58;118.99
65559;DHT22;52203;51.998;5.140;2023-07-31T08:21:22;11.61;118.99
65559;DHT22;52203;51.998;5.140;2023-07-31T08:23:48;11.62;118.99
65559;DHT22;52203;51.998;5.140;2023-07-31T08:26:15;11.59;118.99
65559;DHT22;52203;51.998;5.140;2023-07-31T08:28:41;11.58;118.99
65559;DHT22;52203;51.998;5.140;2023-07-31T08:31:06;11.56;118.99
65559;DHT22;52203;51.998;5.140;2023-07-31T08:33:32;11.59;118.99
65559;DHT22;52203;51.998;5.140;2023-07-31T08:35:57;11.62;118.99
65559;DHT22;52203;51.998;5.140;2023-07-31T08:38:25;11.63;118.99
65559;DHT22;52203;51.998;5.140;2023-07-31T08:40:51;11.67;118.99
65559;DHT22;52203;51.998;5.140;2023-07-31T08:43:17;11.67;118.99
65559;DHT22;52203;51.998;5.140;2023-07-31T08:45:44;11.70;118.99
65559;DHT22;52203;51.998;5.140;2023-07-31T08:48:09;11.66;118.99
65559;DHT22;52203;51.998;5.140;2023-07-31T08:50:37;11.66;118.99
65559;DHT22;52203;51.998;5.140;2023-07-31T08:53:03;11.66;118.99
65559;DHT22;52203;51.998;5.140;2023-07-31T08:55:29;11.68;118.99
65559;DHT22;52203;51.998;5.140;2023-07-31T08:57:55;11.68;118.99
65559;DHT22;52203;51.998;5.140;2023-07-31T09:00:21;11.62;118.99
65559;DHT22;52203;51.998;5.140;2023-07-31T09:02:56;11.60;118.99
65559;DHT22;52203;51.998;5.140;2023-07-31T09:05:23;11.64;118.99
65559;DHT22;52203;51.998;5.140;2023-07-31T09:07:49;11.71;118.99
65559;DHT22;52203;51.998;5.140;2023-07-31T09:10:15;11.71;118.99
65559;DHT22;52203;51.998;5.140;2023-07-31T09:12:41;11.73;118.99
65559;DHT22;52203;51.998;5.140;2023-07-31T09:15:07;11.77;118.99
65559;DHT22;52203;51.998;5.140;2023-07-31T09:17:35;11.78;118.99
65559;DHT22;52203;51.998;5.140;2023-07-31T09:20:18;11.89;118.99
65559;DHT22;52203;51.998;5.140;2023-07-31T09:22:44;11.96;118.99
65559;DHT22;52203;51.998;5.140;2023-07-31T09:25:21;12.10;118.99
65559;DHT22;52203;51.998;5.140;2023-07-31T09:30:20;13.23;118.99
65559;DHT22;52203;51.998;5.140;2023-07-31T09:32:47;13.21;118.99
65559;DHT22;52203;51.998;5.140;2023-07-31T09:35:21;13.14;118.99
65559;DHT22;52203;51.998;5.140;2023-07-31T09:37:55;12.69;118.99
65559;DHT22;52203;51.998;5.140;2023-07-31T09:40:31;12.92;118.99
65559;DHT22;52203;51.998;5.140;2023-07-31T09:42:59;12.92;118.99
65559;DHT22;52203;51.998;5.140;2023-07-31T09:45:25;12.90;118.99
65559;DHT22;52203;51.998;5.140;2023-07-31T09:47:50;12.81;118.99
65559;DHT22;52203;51.998;5.140;2023-07-31T09:50:16;12.84;118.99
65559;DHT22;52203;51.998;5.140;2023-07-31T09:52:42;12.89;118.99
65559;DHT22;52203;51.998;5.140;2023-07-31T09:55:11;12.95;118.99
65559;DHT22;52203;51.998;5.140;2023-07-31T09:57:41;13.02;118.99
65559;DHT22;52203;51.998;5.140;2023-07-31T10:00:10;12.79;118.99
65559;DHT22;52203;51.998;5.140;2023-07-31T10:02:37;12.71;118.99
65559;DHT22;52203;51.998;5.140;2023-07-31T10:05:04;12.42;118.99
65559;DHT22;52203;51.998;5.140;2023-07-31T10:07:30;12.55;118.99
65559;DHT22;52203;51.998;5.140;2023-07-31T10:10:00;12.49;118.99
65559;DHT22;52203;51.998;5.140;2023-07-31T10:12:27;12.38;118.99
65559;DHT22;52203;51.998;5.140;2023-07-31T10:14:56;12.27;118.99
65559;DHT22;52203;51.998;5.140;2023-07-31T10:17:22;12.28;118.99
65559;DHT22;52203;51.998;5.140;2023-07-31T10:19:49;12.28;118.99
65559;DHT22;52203;51.998;5.140;2023-07-31T10:22:15;12.34;118.99
65559;DHT22;52203;51.998;5.140;2023-07-31T10:24:45;12.40;118.99
65559;DHT22;52203;51.998;5.140;2023-07-31T10:27:11;12.35;118.99
65559;DHT22;52203;51.998;5.140;2023-07-31T10:29:38;12.30;118.99
65559;DHT22;52203;51.998;5.140;2023-07-31T10:32:05;12.25;118.99
65559;DHT22;52203;51.998;5.140;2023-07-31T10:34:34;12.25;118.99
65559;DHT22;52203;51.998;5.140;2023-07-31T10:37:37;12.40;118.99
65559;DHT22;52203;51.998;5.140;2023-07-31T10:42:54;12.86;118.99
65559;DHT22;52203;51.998;5.140;2023-07-31T10:45:37;12.86;118.99
65559;DHT22;52203;51.998;5.140;2023-07-31T10:48:07;12.81;118.99
65559;DHT22;52203;51.998;5.140;2023-07-31T10:50:38;12.73;118.99
65559;DHT22;52203;51.998;5.140;2023-07-31T10:53:04;12.74;118.99
65559;DHT22;52203;51.998;5.140;2023-07-31T10:55:33;12.74;118.99
65559;DHT22;52203;51.998;5.140;2023-07-31T10:58:12;12.64;118.99
65559;DHT22;52203;51.998;5.140;2023-07-31T11:00:43;12.61;118.99
65559;DHT22;52203;51.998;5.140;2023-07-31T11:03:10;12.56;118.99
65559;DHT22;52203;51.998;5.140;2023-07-31T11:08:18;12.50;118.99
65559;DHT22;52203;51.998;5.140;2023-07-31T11:10:47;12.53;118.99
65559;DHT22;52203;51.998;5.140;2023-07-31T11:13:13;12.51;118.99
65559;DHT22;52203;51.998;5.140;2023-07-31T11:15:39;12.51;118.99
65559;DHT22;52203;51.998;5.140;2023-07-31T11:18:04;12.51;118.99
65559;DHT22;52203;51.998;5.140;2023-07-31T11:20:35;12.56;118.99
65559;DHT22;52203;51.998;5.140;2023-07-31T11:23:06;12.55;118.99
65559;DHT22;52203;51.998;5.140;2023-07-31T11:25:32;12.55;118.99
65559;DHT22;52203;51.998;5.140;2023-07-31T11:28:12;12.52;118.99
65559;DHT22;52203;51.998;5.140;2023-07-31T11:30:39;12.47;118.99
65559;DHT22;52203;51.998;5.140;2023-07-31T11:33:07;12.48;118.99
65559;DHT22;52203;51.998;5.140;2023-07-31T11:35:34;12.56;118.99
65559;DHT22;52203;51.998;5.140;2023-07-31T11:38:00;12.63;118.99
65559;DHT22;52203;51.998;5.140;2023-07-31T11:40:26;12.67;118.99
65559;DHT22;52203;51.998;5.140;2023-07-31T11:42:58;12.69;118.99
65559;DHT22;52203;51.998;5.140;2023-07-31T11:45:29;12.67;118.99
65559;DHT22;52203;51.998;5.140;2023-07-31T11:47:56;12.78;118.99
65559;DHT22;52203;51.998;5.140;2023-07-31T11:50:23;12.80;118.99
65559;DHT22;52203;51.998;5.140;2023-07-31T11:52:53;12.90;118.99
65559;DHT22;52203;51.998;5.140;2023-07-31T11:55:20;12.85;118.99
65559;DHT22;52203;51.998;5.140;2023-07-31T11:57:46;12.79;118.99
65559;DHT22;52203;51.998;5.140;2023-07-31T12:00:12;12.74;118.99
65559;DHT22;52203;51.998;5.140;2023-07-31T12:02:40;12.70;118.99
65559;DHT22;52203;51.998;5.140;2023-07-31T12:05:10;12.63;118.99
65559;DHT22;52203;51.998;5.140;2023-07-31T12:07:53;12.56;118.99
65559;DHT22;52203;51.998;5.140;2023-07-31T12:10:29;12.50;118.99
65559;DHT22;52203;51.998;5.140;2023-07-31T12:13:09;12.51;118.99
65559;DHT22;52203;51.998;5.140;2023-07-31T12:15:45;12.51;118.99
65559;DHT22;52203;51.998;5.140;2023-07-31T12:18:13;12.55;118.99
65559;DHT22;52203;51.998;5.140;2023-07-31T12:20:47;12.57;118.99
65559;DHT22;52203;51.998;5.140;2023-07-31T12:23:17;12.57;118.99
65559;DHT22;52203;51.998;5.140;2023-07-31T12:25:43;12.58;118.99
65559;DHT22;52203;51.998;5.140;2023-07-31T12:28:09;12.57;118.99
65559;DHT22;52203;51.998;5.140;2023-07-31T12:30:40;12.58;118.99
65559;DHT22;52203;51.998;5.140;2023-07-31T12:33:15;12.60;118.99
65559;DHT22;52203;51.998;5.140;2023-07-31T12:35:45;12.64;118.99
65559;DHT22;52203;51.998;5.140;2023-07-31T12:38:14;12.67;118.99
65559;DHT22;52203;51.998;5.140;2023-07-31T12:40:41;12.74;118.99
65559;DHT22;52203;51.998;5.140;2023-07-31T12:43:07;12.76;118.99
65559;DHT22;52203;51.998;5.140;2023-07-31T12:45:34;12.81;118.99
65559;DHT22;52203;51.998;5.140;2023-07-31T12:48:00;12.85;118.99
65559;DHT22;52203;51.998;5.140;2023-07-31T12:50:26;12.88;118.99
65559;DHT22;52203;51.998;5.140;2023-07-31T12:52:53;12.97;118.99
65559;DHT22;52203;51.998;5.140;2023-07-31T12:55:19;13.12;118.99
65559;DHT22;52203;51.998;5.140;2023-07-31T12:57:44;13.15;118.99
65559;DHT22;52203;51.998;5.140;2023-07-31T13:00:10;13.18;118.99
65559;DHT22;52203;51.998;5.140;2023-07-31T13:02:36;13.19;118.99
65559;DHT22;52203;51.998;5.140;2023-07-31T13:05:02;13.19;118.99
65559;DHT22;52203;51.998;5.140;2023-07-31T13:07:27;13.19;118.99
65559;DHT22;52203;51.998;5.140;2023-07-31T13:09:53;13.15;118.99
65559;DHT22;52203;51.998;5.140;2023-07-31T13:12:18;13.11;118.99
65559;DHT22;52203;51.998;5.140;2023-07-31T13:14:44;13.08;118.99
65559;DHT22;52203;51.998;5.140;2023-07-31T13:17:09;13.05;118.99
65559;DHT22;52203;51.998;5.140;2023-07-31T13:19:35;12.99;118.99
65559;DHT22;52203;51.998;5.140;2023-07-31T13:22:00;13.02;118.99
65559;DHT22;52203;51.998;5.140;2023-07-31T13:24:26;12.97;118.99
65559;DHT22;52203;51.998;5.140;2023-07-31T13:26:51;12.96;118.99
65559;DHT22;52203;51.998;5.140;2023-07-31T13:29:17;12.94;118.99
65559;DHT22;52203;51.998;5.140;2023-07-31T13:31:42;12.94;118.99
65559;DHT22;52203;51.998;5.140;2023-07-31T13:34:08;12.95;118.99
65559;DHT22;52203;51.998;5.140;2023-07-31T13:36:33;12.97;118.99
65559;DHT22;52203;51.998;5.140;2023-07-31T13:39:00;12.97;118.99
65559;DHT22;52203;51.998;5.140;2023-07-31T13:41:26;12.99;118.99
65559;DHT22;52203;51.998;5.140;2023-07-31T13:43:52;13.02;118.99
65559;DHT22;52203;51.998;5.140;2023-07-31T13:46:17;12.97;118.99
65559;DHT22;52203;51.998;5.140;2023-07-31T13:48:43;12.94;118.99
65559;DHT22;52203;51.998;5.140;2023-07-31T13:51:08;12.92;118.99
65559;DHT22;52203;51.998;5.140;2023-07-31T13:53:34;12.90;118.99
65559;DHT22;52203;51.998;5.140;2023-07-31T13:55:59;12.87;118.99
65559;DHT22;52203;51.998;5.140;2023-07-31T13:58:25;12.85;118.99
65559;DHT22;52203;51.998;5.140;2023-07-31T14:00:50;12.86;118.99
65559;DHT22;52203;51.998;5.140;2023-07-31T14:03:16;12.88;118.99
65559;DHT22;52203;51.998;5.140;2023-07-31T14:05:41;12.87;118.99
65559;DHT22;52203;51.998;5.140;2023-07-31T14:08:07;12.90;118.99
65559;DHT22;52203;51.998;5.140;2023-07-31T14:10:32;12.96;118.99
65559;DHT22;52203;51.998;5.140;2023-07-31T14:12:58;13.06;118.99
65559;DHT22;52203;51.998;5.140;2023-07-31T14:15:23;13.09;118.99
65559;DHT22;52203;51.998;5.140;2023-07-31T14:17:49;13.00;118.99
65559;DHT22;52203;51.998;5.140;2023-07-31T14:20:15;12.97;118.99
65559;DHT22;52203;51.998;5.140;2023-07-31T14:22:40;12.89;118.99
65559;DHT22;52203;51.998;5.140;2023-07-31T14:25:06;12.88;118.99
65559;DHT22;52203;51.998;5.140;2023-07-31T14:27:32;12.88;118.99
65559;DHT22;52203;51.998;5.140;2023-07-31T14:29:58;12.88;118.99
65559;DHT22;52203;51.998;5.140;2023-07-31T14:32:23;12.87;118.99
65559;DHT22;52203;51.998;5.140;2023-07-31T14:34:51;12.88;118.99
65559;DHT22;52203;51.998;5.140;2023-07-31T14:37:16;12.82;118.99
65559;DHT22;52203;51.998;5.140;2023-07-31T14:39:42;12.81;118.99
65559;DHT22;52203;51.998;5.140;2023-07-31T14:42:08;12.85;118.99
65559;DHT22;52203;51.998;5.140;2023-07-31T14:44:34;12.81;118.99
65559;DHT22;52203;51.998;5.140;2023-07-31T14:47:00;12.84;118.99
65559;DHT22;52203;51.998;5.140;2023-07-31T14:49:25;12.85;118.99
65559;DHT22;52203;51.998;5.140;2023-07-31T14:51:53;12.82;118.99
65559;DHT22;52203;51.998;5.140;2023-07-31T14:54:19;12.84;118.99
65559;DHT22;52203;51.998;5.140;2023-07-31T14:56:44;12.88;118.99
65559;DHT22;52203;51.998;5.140;2023-07-31T14:59:10;12.89;118.99
65559;DHT22;52203;51.998;5.140;2023-07-31T15:01:36;12.90;118.99
65559;DHT22;52203;51.998;5.140;2023-07-31T15:04:02;12.91;118.99
65559;DHT22;52203;51.998;5.140;2023-07-31T15:06:28;12.93;118.99
65559;DHT22;52203;51.998;5.140;2023-07-31T15:08:53;12.91;118.99
65559;DHT22;52203;51.998;5.140;2023-07-31T15:11:19;12.88;118.99
65559;DHT22;52203;51.998;5.140;2023-07-31T15:13:44;12.85;118.99
65559;DHT22;52203;51.998;5.140;2023-07-31T15:16:10;12.82;118.99
65559;DHT22;52203;51.998;5.140;2023-07-31T15:18:35;12.85;118.99
65559;DHT22;52203;51.998;5.140;2023-07-31T15:21:01;12.82;118.99
65559;DHT22;52203;51.998;5.140;2023-07-31T15:23:26;12.80;118.99
65559;DHT22;52203;51.998;5.140;2023-07-31T15:25:52;12.80;118.99
65559;DHT22;52203;51.998;5.140;2023-07-31T15:28:18;12.77;118.99